Terminal Aerodrome Forecast
Issued by NWS Louisville, KY

Home | Current Version | Previous Version | Text Only | Print | Product List | Glossary On
Versions: 1 2 3 4 5 6 7 8 9 10 11 12 13 14 15 16 17 18 19 20 21 22
000
FTUS43 KLMK 140300 AAA
TAFBWG
TAF AMD
KBWG 140347Z 1404/1424 18015G24KT P6SM BKN090 WS020/21045KT
     FM140800 19016G26KT 5SM -SHRA BR OVC025
     FM141600 20017G25KT P6SM VCSH OVC030
     FM142200 22013G20KT 5SM -SHRA OVC020=

USA.gov is the U.S. government's official web portal to all federal, state and local government web resources and services.